KDUJ

Dubois Regional Airport

Dubois, Pennsylvania, USA
METAR KDUJ 191253Z AUTO 16003KT 10SM CLR M07/M09 A3003 RMK AO2 SLP192 T10671089 $
Observed Flight Rules
Dec-19 @ 12:53 UTC (46 minutes ago) Visual Flight Rules
Wind Visibility Clouds
160° at 3 knots 10 miles
  • Clear skies
Temperatures Readings
Current -7°C / 19°F
Dewpoint -9°C / 16°F
Humidity 86%
Altimeter 30.03" Hg
Pressure 1019.2 hPa
Elevation 554
METAR KDUJ 191253Z AUTO 16003KT 10SM CLR M07/M09 A3003 RMK AO2 SLP192 T10671089 $
Observed Flight Rules
Dec-19 @ 12:53 UTC
(46 minutes ago)
VFR
Wind Visibility
160° at 3 knots 10 miles
Clouds
  • Clear skies
Temperature Dewpoint
-7°C / 19°F -9°C / 16°F
Humidity Altimeter Pressure
86% 30.03" Hg 1019.2 hPa